sensor_id;sensor_type;location;lat;lon;timestamp;temperature;humidity
13572;DHT22;6857;53.484;10.216;2024-02-26T00:02:23;4.50;99.90
13572;DHT22;6857;53.484;10.216;2024-02-26T00:04:49;4.40;99.90
13572;DHT22;6857;53.484;10.216;2024-02-26T00:07:15;4.40;99.90
13572;DHT22;6857;53.484;10.216;2024-02-26T00:09:41;4.40;99.90
13572;DHT22;6857;53.484;10.216;2024-02-26T00:12:07;4.30;99.90
13572;DHT22;6857;53.484;10.216;2024-02-26T00:14:32;4.40;99.90
13572;DHT22;6857;53.484;10.216;2024-02-26T00:16:58;4.30;99.90
13572;DHT22;6857;53.484;10.216;2024-02-26T00:19:24;4.30;99.90
13572;DHT22;6857;53.484;10.216;2024-02-26T00:21:49;4.30;99.90
13572;DHT22;6857;53.484;10.216;2024-02-26T00:24:15;4.20;99.90
13572;DHT22;6857;53.484;10.216;2024-02-26T00:26:40;4.20;99.90
13572;DHT22;6857;53.484;10.216;2024-02-26T00:29:06;4.10;99.90
13572;DHT22;6857;53.484;10.216;2024-02-26T00:31:31;4.10;99.90
13572;DHT22;6857;53.484;10.216;2024-02-26T00:33:57;4.10;99.90
13572;DHT22;6857;53.484;10.216;2024-02-26T00:36:23;4.00;99.90
13572;DHT22;6857;53.484;10.216;2024-02-26T00:38:48;3.90;99.90
13572;DHT22;6857;53.484;10.216;2024-02-26T00:41:20;3.90;99.90
13572;DHT22;6857;53.484;10.216;2024-02-26T00:43:46;3.90;99.90
13572;DHT22;6857;53.484;10.216;2024-02-26T00:46:12;3.80;99.90
13572;DHT22;6857;53.484;10.216;2024-02-26T00:48:37;3.80;99.90
13572;DHT22;6857;53.484;10.216;2024-02-26T00:51:03;3.80;99.90
13572;DHT22;6857;53.484;10.216;2024-02-26T00:53:31;3.80;99.90
13572;DHT22;6857;53.484;10.216;2024-02-26T00:55:56;3.80;99.90
13572;DHT22;6857;53.484;10.216;2024-02-26T00:58:24;3.80;99.90
13572;DHT22;6857;53.484;10.216;2024-02-26T01:00:49;3.70;99.90
13572;DHT22;6857;53.484;10.216;2024-02-26T01:03:15;3.70;99.90
13572;DHT22;6857;53.484;10.216;2024-02-26T01:05:40;3.70;99.90
13572;DHT22;6857;53.484;10.216;2024-02-26T01:08:06;3.70;99.90
13572;DHT22;6857;53.484;10.216;2024-02-26T01:10:31;3.70;99.90
13572;DHT22;6857;53.484;10.216;2024-02-26T01:12:57;3.60;99.90
13572;DHT22;6857;53.484;10.216;2024-02-26T01:15:23;3.60;99.90
13572;DHT22;6857;53.484;10.216;2024-02-26T01:17:50;3.60;99.90
13572;DHT22;6857;53.484;10.216;2024-02-26T01:20:16;3.50;99.90
13572;DHT22;6857;53.484;10.216;2024-02-26T01:22:42;3.50;99.90
13572;DHT22;6857;53.484;10.216;2024-02-26T01:25:08;3.50;99.90
13572;DHT22;6857;53.484;10.216;2024-02-26T01:27:35;3.50;99.90
13572;DHT22;6857;53.484;10.216;2024-02-26T01:30:02;3.50;99.90
13572;DHT22;6857;53.484;10.216;2024-02-26T01:32:29;3.50;99.90
13572;DHT22;6857;53.484;10.216;2024-02-26T01:34:54;3.60;99.90
13572;DHT22;6857;53.484;10.216;2024-02-26T01:37:20;3.40;99.90
13572;DHT22;6857;53.484;10.216;2024-02-26T01:39:46;3.40;99.90
13572;DHT22;6857;53.484;10.216;2024-02-26T01:42:11;3.40;99.90
13572;DHT22;6857;53.484;10.216;2024-02-26T01:44:37;3.90;99.90
13572;DHT22;6857;53.484;10.216;2024-02-26T01:47:05;3.40;99.90
13572;DHT22;6857;53.484;10.216;2024-02-26T01:49:31;3.30;99.90
13572;DHT22;6857;53.484;10.216;2024-02-26T01:51:58;3.30;99.90
13572;DHT22;6857;53.484;10.216;2024-02-26T01:54:24;3.20;99.90
13572;DHT22;6857;53.484;10.216;2024-02-26T01:56:49;3.20;99.90
13572;DHT22;6857;53.484;10.216;2024-02-26T01:59:16;3.20;99.90
13572;DHT22;6857;53.484;10.216;2024-02-26T02:01:44;3.20;99.90
13572;DHT22;6857;53.484;10.216;2024-02-26T02:04:11;3.00;99.90
13572;DHT22;6857;53.484;10.216;2024-02-26T02:06:37;3.20;99.90
13572;DHT22;6857;53.484;10.216;2024-02-26T02:09:03;3.10;99.90
13572;DHT22;6857;53.484;10.216;2024-02-26T02:11:33;3.10;99.90
13572;DHT22;6857;53.484;10.216;2024-02-26T02:13:59;3.10;99.90
13572;DHT22;6857;53.484;10.216;2024-02-26T02:16:24;3.10;99.90
13572;DHT22;6857;53.484;10.216;2024-02-26T02:18:50;3.00;99.90
13572;DHT22;6857;53.484;10.216;2024-02-26T02:21:16;3.00;99.90
13572;DHT22;6857;53.484;10.216;2024-02-26T02:23:41;3.00;99.90
13572;DHT22;6857;53.484;10.216;2024-02-26T02:26:14;2.90;99.90
13572;DHT22;6857;53.484;10.216;2024-02-26T02:28:40;2.90;99.90
13572;DHT22;6857;53.484;10.216;2024-02-26T02:31:06;2.90;99.90
13572;DHT22;6857;53.484;10.216;2024-02-26T02:33:32;2.90;99.90
13572;DHT22;6857;53.484;10.216;2024-02-26T02:35:58;2.90;99.90
13572;DHT22;6857;53.484;10.216;2024-02-26T02:38:24;2.90;99.90
13572;DHT22;6857;53.484;10.216;2024-02-26T02:40:54;2.90;99.90
13572;DHT22;6857;53.484;10.216;2024-02-26T02:43:20;2.90;99.90
13572;DHT22;6857;53.484;10.216;2024-02-26T02:45:45;2.90;99.90
13572;DHT22;6857;53.484;10.216;2024-02-26T02:48:11;2.90;99.90
13572;DHT22;6857;53.484;10.216;2024-02-26T02:50:37;2.90;99.90
13572;DHT22;6857;53.484;10.216;2024-02-26T02:53:02;2.70;99.90
13572;DHT22;6857;53.484;10.216;2024-02-26T02:55:28;2.80;99.90
13572;DHT22;6857;53.484;10.216;2024-02-26T02:57:53;2.80;99.90
13572;DHT22;6857;53.484;10.216;2024-02-26T03:00:19;2.80;99.90
13572;DHT22;6857;53.484;10.216;2024-02-26T03:02:45;2.80;99.90
13572;DHT22;6857;53.484;10.216;2024-02-26T03:05:11;2.70;99.90
13572;DHT22;6857;53.484;10.216;2024-02-26T03:07:37;2.70;99.90
13572;DHT22;6857;53.484;10.216;2024-02-26T03:10:03;2.70;99.90
13572;DHT22;6857;53.484;10.216;2024-02-26T03:12:29;2.70;99.90
13572;DHT22;6857;53.484;10.216;2024-02-26T03:14:55;2.60;99.90
13572;DHT22;6857;53.484;10.216;2024-02-26T03:17:21;2.60;99.90
13572;DHT22;6857;53.484;10.216;2024-02-26T03:19:47;2.50;99.90
13572;DHT22;6857;53.484;10.216;2024-02-26T03:22:15;2.50;99.90
13572;DHT22;6857;53.484;10.216;2024-02-26T03:24:41;2.50;99.90
13572;DHT22;6857;53.484;10.216;2024-02-26T03:27:06;2.50;99.90
13572;DHT22;6857;53.484;10.216;2024-02-26T03:29:35;2.50;99.90
13572;DHT22;6857;53.484;10.216;2024-02-26T03:32:00;2.50;99.90
13572;DHT22;6857;53.484;10.216;2024-02-26T03:34:26;2.50;99.90
13572;DHT22;6857;53.484;10.216;2024-02-26T03:36:52;2.50;99.90
13572;DHT22;6857;53.484;10.216;2024-02-26T03:39:18;2.50;99.90
13572;DHT22;6857;53.484;10.216;2024-02-26T03:41:43;2.50;99.90
13572;DHT22;6857;53.484;10.216;2024-02-26T03:44:09;2.50;99.90
13572;DHT22;6857;53.484;10.216;2024-02-26T03:46:35;2.50;99.90
13572;DHT22;6857;53.484;10.216;2024-02-26T03:49:00;2.50;99.90
13572;DHT22;6857;53.484;10.216;2024-02-26T03:51:26;2.40;99.90
13572;DHT22;6857;53.484;10.216;2024-02-26T03:53:53;2.40;99.90
13572;DHT22;6857;53.484;10.216;2024-02-26T03:56:19;2.30;99.90
13572;DHT22;6857;53.484;10.216;2024-02-26T03:58:45;2.40;99.90
13572;DHT22;6857;53.484;10.216;2024-02-26T04:01:11;2.40;99.90
13572;DHT22;6857;53.484;10.216;2024-02-26T04:03:37;2.40;99.90
13572;DHT22;6857;53.484;10.216;2024-02-26T04:06:02;2.40;99.90
13572;DHT22;6857;53.484;10.216;2024-02-26T04:08:28;2.40;99.90
13572;DHT22;6857;53.484;10.216;2024-02-26T04:10:54;2.40;99.90
13572;DHT22;6857;53.484;10.216;2024-02-26T04:13:19;2.30;99.90
13572;DHT22;6857;53.484;10.216;2024-02-26T04:15:45;2.20;99.90
13572;DHT22;6857;53.484;10.216;2024-02-26T04:18:11;1.90;99.90
13572;DHT22;6857;53.484;10.216;2024-02-26T04:20:37;1.80;99.90
13572;DHT22;6857;53.484;10.216;2024-02-26T04:23:03;1.70;99.90
13572;DHT22;6857;53.484;10.216;2024-02-26T04:25:29;1.80;99.90
13572;DHT22;6857;53.484;10.216;2024-02-26T04:27:54;1.70;99.90
13572;DHT22;6857;53.484;10.216;2024-02-26T04:30:20;1.80;99.90
13572;DHT22;6857;53.484;10.216;2024-02-26T04:32:45;1.80;99.90
13572;DHT22;6857;53.484;10.216;2024-02-26T04:35:11;1.70;99.90
13572;DHT22;6857;53.484;10.216;2024-02-26T04:37:36;1.70;99.90
13572;DHT22;6857;53.484;10.216;2024-02-26T04:40:02;1.60;99.90
13572;DHT22;6857;53.484;10.216;2024-02-26T04:42:28;1.60;99.90
13572;DHT22;6857;53.484;10.216;2024-02-26T04:44:56;1.70;99.90
13572;DHT22;6857;53.484;10.216;2024-02-26T04:47:22;1.70;99.90
13572;DHT22;6857;53.484;10.216;2024-02-26T04:49:51;1.70;99.90
13572;DHT22;6857;53.484;10.216;2024-02-26T04:52:18;1.80;99.90
13572;DHT22;6857;53.484;10.216;2024-02-26T04:54:44;1.90;99.90
13572;DHT22;6857;53.484;10.216;2024-02-26T04:57:09;1.90;99.90
13572;DHT22;6857;53.484;10.216;2024-02-26T04:59:35;2.00;99.90
13572;DHT22;6857;53.484;10.216;2024-02-26T05:02:00;2.10;99.90
13572;DHT22;6857;53.484;10.216;2024-02-26T05:04:26;2.10;99.90
13572;DHT22;6857;53.484;10.216;2024-02-26T05:06:51;2.10;99.90
13572;DHT22;6857;53.484;10.216;2024-02-26T05:09:17;2.10;99.90
13572;DHT22;6857;53.484;10.216;2024-02-26T05:11:42;2.10;99.90
13572;DHT22;6857;53.484;10.216;2024-02-26T05:14:08;2.00;99.90
13572;DHT22;6857;53.484;10.216;2024-02-26T05:16:34;2.00;99.90
13572;DHT22;6857;53.484;10.216;2024-02-26T05:18:59;2.00;99.90
13572;DHT22;6857;53.484;10.216;2024-02-26T05:21:25;2.00;99.90
13572;DHT22;6857;53.484;10.216;2024-02-26T05:23:50;1.90;99.90
13572;DHT22;6857;53.484;10.216;2024-02-26T05:26:20;2.00;99.90
13572;DHT22;6857;53.484;10.216;2024-02-26T05:28:46;2.00;99.90
13572;DHT22;6857;53.484;10.216;2024-02-26T05:31:15;2.00;99.90
13572;DHT22;6857;53.484;10.216;2024-02-26T05:33:41;2.00;99.90
13572;DHT22;6857;53.484;10.216;2024-02-26T05:36:07;2.00;99.90
13572;DHT22;6857;53.484;10.216;2024-02-26T05:38:32;2.00;99.90
13572;DHT22;6857;53.484;10.216;2024-02-26T05:41:01;2.10;99.90
13572;DHT22;6857;53.484;10.216;2024-02-26T05:43:27;2.00;99.90
13572;DHT22;6857;53.484;10.216;2024-02-26T05:45:52;2.20;99.90
13572;DHT22;6857;53.484;10.216;2024-02-26T05:48:18;2.30;99.90
13572;DHT22;6857;53.484;10.216;2024-02-26T05:50:45;2.30;99.90
13572;DHT22;6857;53.484;10.216;2024-02-26T05:53:11;2.20;99.90
13572;DHT22;6857;53.484;10.216;2024-02-26T05:55:37;2.20;99.90
13572;DHT22;6857;53.484;10.216;2024-02-26T05:58:03;2.20;99.90
13572;DHT22;6857;53.484;10.216;2024-02-26T06:00:28;2.20;99.90
13572;DHT22;6857;53.484;10.216;2024-02-26T06:02:54;2.30;99.90
13572;DHT22;6857;53.484;10.216;2024-02-26T06:05:19;2.30;99.90
13572;DHT22;6857;53.484;10.216;2024-02-26T06:07:45;2.30;99.90
13572;DHT22;6857;53.484;10.216;2024-02-26T06:10:11;2.30;99.90
13572;DHT22;6857;53.484;10.216;2024-02-26T06:12:36;2.40;99.90
13572;DHT22;6857;53.484;10.216;2024-02-26T06:15:02;2.30;99.90
13572;DHT22;6857;53.484;10.216;2024-02-26T06:17:29;2.40;99.90
13572;DHT22;6857;53.484;10.216;2024-02-26T06:19:55;2.30;99.90
13572;DHT22;6857;53.484;10.216;2024-02-26T06:22:20;2.30;99.90
13572;DHT22;6857;53.484;10.216;2024-02-26T06:24:46;2.30;99.90
13572;DHT22;6857;53.484;10.216;2024-02-26T06:27:11;2.30;99.90
13572;DHT22;6857;53.484;10.216;2024-02-26T06:29:37;2.30;99.90
13572;DHT22;6857;53.484;10.216;2024-02-26T06:32:03;2.30;99.90
13572;DHT22;6857;53.484;10.216;2024-02-26T06:34:29;2.30;99.90
13572;DHT22;6857;53.484;10.216;2024-02-26T06:36:54;2.30;99.90
13572;DHT22;6857;53.484;10.216;2024-02-26T06:39:20;2.30;99.90
13572;DHT22;6857;53.484;10.216;2024-02-26T06:41:45;2.30;99.90
13572;DHT22;6857;53.484;10.216;2024-02-26T06:44:13;2.30;99.90
13572;DHT22;6857;53.484;10.216;2024-02-26T06:46:38;2.40;99.90
13572;DHT22;6857;53.484;10.216;2024-02-26T06:49:05;2.40;99.90
13572;DHT22;6857;53.484;10.216;2024-02-26T06:51:30;2.40;99.90
13572;DHT22;6857;53.484;10.216;2024-02-26T06:53:56;2.40;99.90
13572;DHT22;6857;53.484;10.216;2024-02-26T06:56:21;2.50;99.90
13572;DHT22;6857;53.484;10.216;2024-02-26T06:58:47;2.50;99.90
13572;DHT22;6857;53.484;10.216;2024-02-26T07:01:12;2.60;99.90
13572;DHT22;6857;53.484;10.216;2024-02-26T07:03:40;2.60;99.90
13572;DHT22;6857;53.484;10.216;2024-02-26T07:06:06;2.60;99.90
13572;DHT22;6857;53.484;10.216;2024-02-26T07:08:32;2.70;99.90
13572;DHT22;6857;53.484;10.216;2024-02-26T07:10:58;2.80;99.90
13572;DHT22;6857;53.484;10.216;2024-02-26T07:13:23;2.80;99.90
13572;DHT22;6857;53.484;10.216;2024-02-26T07:15:49;2.80;99.90
13572;DHT22;6857;53.484;10.216;2024-02-26T07:18:14;2.70;99.90
13572;DHT22;6857;53.484;10.216;2024-02-26T07:20:40;2.70;99.90
13572;DHT22;6857;53.484;10.216;2024-02-26T07:23:05;2.80;99.90
13572;DHT22;6857;53.484;10.216;2024-02-26T07:25:32;2.90;99.90
13572;DHT22;6857;53.484;10.216;2024-02-26T07:27:57;2.90;99.90
13572;DHT22;6857;53.484;10.216;2024-02-26T07:30:23;3.00;99.90
13572;DHT22;6857;53.484;10.216;2024-02-26T07:32:50;3.00;99.90
13572;DHT22;6857;53.484;10.216;2024-02-26T07:35:15;3.10;99.90
13572;DHT22;6857;53.484;10.216;2024-02-26T07:37:42;3.00;99.90
13572;DHT22;6857;53.484;10.216;2024-02-26T07:40:08;3.00;99.90
13572;DHT22;6857;53.484;10.216;2024-02-26T07:42:34;3.00;99.90
13572;DHT22;6857;53.484;10.216;2024-02-26T07:45:00;3.20;99.90
13572;DHT22;6857;53.484;10.216;2024-02-26T07:47:25;3.30;99.90
13572;DHT22;6857;53.484;10.216;2024-02-26T07:49:51;3.40;99.90
13572;DHT22;6857;53.484;10.216;2024-02-26T07:52:16;3.50;99.90
13572;DHT22;6857;53.484;10.216;2024-02-26T07:54:42;3.40;99.90
13572;DHT22;6857;53.484;10.216;2024-02-26T07:57:07;3.50;99.90
13572;DHT22;6857;53.484;10.216;2024-02-26T07:59:33;3.60;99.90
13572;DHT22;6857;53.484;10.216;2024-02-26T08:01:58;3.60;99.90
13572;DHT22;6857;53.484;10.216;2024-02-26T08:04:24;3.70;99.90
13572;DHT22;6857;53.484;10.216;2024-02-26T08:06:52;3.80;99.90
13572;DHT22;6857;53.484;10.216;2024-02-26T08:09:20;3.90;99.90
13572;DHT22;6857;53.484;10.216;2024-02-26T08:11:45;3.90;99.90
13572;DHT22;6857;53.484;10.216;2024-02-26T08:14:11;3.90;99.90
13572;DHT22;6857;53.484;10.216;2024-02-26T08:16:37;3.90;99.90
13572;DHT22;6857;53.484;10.216;2024-02-26T08:19:02;3.90;99.90
13572;DHT22;6857;53.484;10.216;2024-02-26T08:21:28;3.90;99.90
13572;DHT22;6857;53.484;10.216;2024-02-26T08:23:54;4.00;99.90
13572;DHT22;6857;53.484;10.216;2024-02-26T08:26:20;4.10;99.90
13572;DHT22;6857;53.484;10.216;2024-02-26T08:28:47;4.20;99.90
13572;DHT22;6857;53.484;10.216;2024-02-26T08:31:14;4.30;99.90
13572;DHT22;6857;53.484;10.216;2024-02-26T08:33:40;4.30;99.90
13572;DHT22;6857;53.484;10.216;2024-02-26T08:36:06;4.40;99.90
13572;DHT22;6857;53.484;10.216;2024-02-26T08:38:31;4.40;99.90
13572;DHT22;6857;53.484;10.216;2024-02-26T08:40:57;4.60;99.90
13572;DHT22;6857;53.484;10.216;2024-02-26T08:43:22;4.60;99.90
13572;DHT22;6857;53.484;10.216;2024-02-26T08:45:48;4.70;99.90
13572;DHT22;6857;53.484;10.216;2024-02-26T08:48:13;4.70;99.90
13572;DHT22;6857;53.484;10.216;2024-02-26T08:50:39;4.80;99.90
13572;DHT22;6857;53.484;10.216;2024-02-26T08:53:05;4.80;99.90
13572;DHT22;6857;53.484;10.216;2024-02-26T08:55:31;4.90;99.90
13572;DHT22;6857;53.484;10.216;2024-02-26T08:57:56;5.00;99.90
13572;DHT22;6857;53.484;10.216;2024-02-26T09:00:22;5.10;99.90
13572;DHT22;6857;53.484;10.216;2024-02-26T09:02:48;5.20;99.90
13572;DHT22;6857;53.484;10.216;2024-02-26T09:05:14;5.20;99.90
13572;DHT22;6857;53.484;10.216;2024-02-26T09:07:40;5.20;99.90
13572;DHT22;6857;53.484;10.216;2024-02-26T09:10:06;5.20;99.90
13572;DHT22;6857;53.484;10.216;2024-02-26T09:12:34;5.30;99.90
13572;DHT22;6857;53.484;10.216;2024-02-26T09:15:00;5.40;99.90
13572;DHT22;6857;53.484;10.216;2024-02-26T09:17:25;5.40;99.90
13572;DHT22;6857;53.484;10.216;2024-02-26T09:19:51;5.50;99.90
13572;DHT22;6857;53.484;10.216;2024-02-26T09:22:16;5.60;99.90
13572;DHT22;6857;53.484;10.216;2024-02-26T09:24:42;5.70;99.90
13572;DHT22;6857;53.484;10.216;2024-02-26T09:27:07;5.70;99.90
13572;DHT22;6857;53.484;10.216;2024-02-26T09:29:35;5.80;99.90
13572;DHT22;6857;53.484;10.216;2024-02-26T09:32:01;5.90;99.90
13572;DHT22;6857;53.484;10.216;2024-02-26T09:34:26;5.90;99.90
13572;DHT22;6857;53.484;10.216;2024-02-26T09:36:52;5.90;99.90
13572;DHT22;6857;53.484;10.216;2024-02-26T09:39:17;5.90;99.90
13572;DHT22;6857;53.484;10.216;2024-02-26T09:41:47;5.90;99.90
13572;DHT22;6857;53.484;10.216;2024-02-26T09:44:18;5.90;99.90
13572;DHT22;6857;53.484;10.216;2024-02-26T09:46:47;5.90;99.90
13572;DHT22;6857;53.484;10.216;2024-02-26T09:49:15;5.90;99.90
13572;DHT22;6857;53.484;10.216;2024-02-26T09:51:40;6.10;99.90
13572;DHT22;6857;53.484;10.216;2024-02-26T09:54:09;6.10;99.90
13572;DHT22;6857;53.484;10.216;2024-02-26T09:56:36;6.20;99.90
13572;DHT22;6857;53.484;10.216;2024-02-26T09:59:05;6.20;99.90
13572;DHT22;6857;53.484;10.216;2024-02-26T10:01:32;6.10;99.90
13572;DHT22;6857;53.484;10.216;2024-02-26T10:04:00;6.10;99.90
13572;DHT22;6857;53.484;10.216;2024-02-26T10:06:29;6.10;99.90
13572;DHT22;6857;53.484;10.216;2024-02-26T10:08:55;6.20;99.90
13572;DHT22;6857;53.484;10.216;2024-02-26T10:11:22;6.20;99.90
13572;DHT22;6857;53.484;10.216;2024-02-26T10:13:49;6.20;99.90
13572;DHT22;6857;53.484;10.216;2024-02-26T10:16:14;6.30;99.90
13572;DHT22;6857;53.484;10.216;2024-02-26T10:18:51;6.40;99.90
13572;DHT22;6857;53.484;10.216;2024-02-26T10:21:19;6.50;99.90
13572;DHT22;6857;53.484;10.216;2024-02-26T10:23:45;6.50;99.90
13572;DHT22;6857;53.484;10.216;2024-02-26T10:26:14;6.50;99.90
13572;DHT22;6857;53.484;10.216;2024-02-26T10:28:44;6.60;99.90
13572;DHT22;6857;53.484;10.216;2024-02-26T10:31:11;6.60;99.90
13572;DHT22;6857;53.484;10.216;2024-02-26T10:33:39;6.70;99.90
13572;DHT22;6857;53.484;10.216;2024-02-26T10:36:07;6.70;99.90
13572;DHT22;6857;53.484;10.216;2024-02-26T10:38:36;6.70;99.90
13572;DHT22;6857;53.484;10.216;2024-02-26T10:41:03;6.80;99.90
13572;DHT22;6857;53.484;10.216;2024-02-26T10:43:29;6.80;99.90
13572;DHT22;6857;53.484;10.216;2024-02-26T10:45:58;6.90;99.90
13572;DHT22;6857;53.484;10.216;2024-02-26T10:48:24;6.90;99.90
13572;DHT22;6857;53.484;10.216;2024-02-26T10:50:49;7.00;99.90
13572;DHT22;6857;53.484;10.216;2024-02-26T10:53:29;7.00;99.90
13572;DHT22;6857;53.484;10.216;2024-02-26T10:55:58;7.00;99.90
13572;DHT22;6857;53.484;10.216;2024-02-26T10:58:26;7.00;99.90
13572;DHT22;6857;53.484;10.216;2024-02-26T11:00:52;7.00;99.90
13572;DHT22;6857;53.484;10.216;2024-02-26T11:03:19;6.90;99.90
13572;DHT22;6857;53.484;10.216;2024-02-26T11:05:49;7.00;99.90
13572;DHT22;6857;53.484;10.216;2024-02-26T11:08:18;7.10;99.90
13572;DHT22;6857;53.484;10.216;2024-02-26T11:10:47;7.10;99.90
13572;DHT22;6857;53.484;10.216;2024-02-26T11:13:16;7.20;99.90
13572;DHT22;6857;53.484;10.216;2024-02-26T11:15:46;7.30;99.90
13572;DHT22;6857;53.484;10.216;2024-02-26T11:18:14;7.40;99.90
13572;DHT22;6857;53.484;10.216;2024-02-26T11:20:40;7.40;99.90
13572;DHT22;6857;53.484;10.216;2024-02-26T11:23:07;7.40;99.90
13572;DHT22;6857;53.484;10.216;2024-02-26T11:25:34;7.50;99.90
13572;DHT22;6857;53.484;10.216;2024-02-26T11:28:04;7.60;99.90
13572;DHT22;6857;53.484;10.216;2024-02-26T11:30:33;7.60;99.90
13572;DHT22;6857;53.484;10.216;2024-02-26T11:33:00;7.70;99.90
13572;DHT22;6857;53.484;10.216;2024-02-26T11:35:27;7.80;99.90
13572;DHT22;6857;53.484;10.216;2024-02-26T11:37:54;7.90;99.90
13572;DHT22;6857;53.484;10.216;2024-02-26T11:40:23;8.00;99.90
13572;DHT22;6857;53.484;10.216;2024-02-26T11:42:49;8.10;99.90
13572;DHT22;6857;53.484;10.216;2024-02-26T11:48:03;8.30;99.90
13572;DHT22;6857;53.484;10.216;2024-02-26T11:50:51;8.20;99.90
13572;DHT22;6857;53.484;10.216;2024-02-26T11:53:27;8.20;99.90
13572;DHT22;6857;53.484;10.216;2024-02-26T11:59:09;8.10;99.90
13572;DHT22;6857;53.484;10.216;2024-02-26T12:01:43;8.00;99.90
13572;DHT22;6857;53.484;10.216;2024-02-26T12:04:14;8.10;99.90
13572;DHT22;6857;53.484;10.216;2024-02-26T12:06:49;8.30;99.90
13572;DHT22;6857;53.484;10.216;2024-02-26T12:09:37;8.40;99.90
13572;DHT22;6857;53.484;10.216;2024-02-26T12:12:07;8.30;99.90
13572;DHT22;6857;53.484;10.216;2024-02-26T12:14:50;8.30;99.90
13572;DHT22;6857;53.484;10.216;2024-02-26T12:17:21;8.20;99.90
13572;DHT22;6857;53.484;10.216;2024-02-26T12:19:47;8.30;99.90
13572;DHT22;6857;53.484;10.216;2024-02-26T12:22:13;8.50;99.90
13572;DHT22;6857;53.484;10.216;2024-02-26T12:24:40;8.40;99.90
13572;DHT22;6857;53.484;10.216;2024-02-26T12:27:05;8.40;99.90
13572;DHT22;6857;53.484;10.216;2024-02-26T12:29:31;8.40;99.90
13572;DHT22;6857;53.484;10.216;2024-02-26T12:31:57;8.50;99.90
13572;DHT22;6857;53.484;10.216;2024-02-26T12:34:23;8.60;99.90
13572;DHT22;6857;53.484;10.216;2024-02-26T12:36:49;8.60;99.90
13572;DHT22;6857;53.484;10.216;2024-02-26T12:39:14;8.70;99.90
13572;DHT22;6857;53.484;10.216;2024-02-26T12:41:40;8.70;99.90
13572;DHT22;6857;53.484;10.216;2024-02-26T12:44:07;8.80;99.90
13572;DHT22;6857;53.484;10.216;2024-02-26T12:46:33;8.80;99.90
13572;DHT22;6857;53.484;10.216;2024-02-26T12:48:59;8.70;99.90
13572;DHT22;6857;53.484;10.216;2024-02-26T12:51:26;8.90;99.90
13572;DHT22;6857;53.484;10.216;2024-02-26T12:53:52;8.90;99.90
13572;DHT22;6857;53.484;10.216;2024-02-26T12:56:19;8.90;99.90
13572;DHT22;6857;53.484;10.216;2024-02-26T12:58:45;9.00;99.90
13572;DHT22;6857;53.484;10.216;2024-02-26T13:01:14;9.20;99.90
13572;DHT22;6857;53.484;10.216;2024-02-26T13:03:41;9.20;99.90
13572;DHT22;6857;53.484;10.216;2024-02-26T13:06:07;9.10;99.90
13572;DHT22;6857;53.484;10.216;2024-02-26T13:08:33;8.90;99.90
13572;DHT22;6857;53.484;10.216;2024-02-26T13:11:00;8.90;99.90
13572;DHT22;6857;53.484;10.216;2024-02-26T13:13:25;8.70;99.90
13572;DHT22;6857;53.484;10.216;2024-02-26T13:16:01;8.60;99.90
13572;DHT22;6857;53.484;10.216;2024-02-26T13:18:27;8.70;99.90
13572;DHT22;6857;53.484;10.216;2024-02-26T13:23:34;8.70;99.90
13572;DHT22;6857;53.484;10.216;2024-02-26T13:26:00;8.80;99.90
13572;DHT22;6857;53.484;10.216;2024-02-26T13:28:25;8.70;99.90
13572;DHT22;6857;53.484;10.216;2024-02-26T13:30:54;8.60;99.90
13572;DHT22;6857;53.484;10.216;2024-02-26T13:33:24;8.60;99.90
13572;DHT22;6857;53.484;10.216;2024-02-26T13:35:50;8.50;99.90
13572;DHT22;6857;53.484;10.216;2024-02-26T13:38:17;8.50;99.90
13572;DHT22;6857;53.484;10.216;2024-02-26T13:40:42;8.50;99.90
13572;DHT22;6857;53.484;10.216;2024-02-26T13:43:08;8.40;99.90
13572;DHT22;6857;53.484;10.216;2024-02-26T13:45:35;8.50;99.90
13572;DHT22;6857;53.484;10.216;2024-02-26T13:48:06;8.50;99.90
13572;DHT22;6857;53.484;10.216;2024-02-26T13:50:32;8.40;99.90
13572;DHT22;6857;53.484;10.216;2024-02-26T13:52:58;8.20;99.90
13572;DHT22;6857;53.484;10.216;2024-02-26T13:55:25;8.10;99.90
13572;DHT22;6857;53.484;10.216;2024-02-26T13:57:54;8.10;99.90
13572;DHT22;6857;53.484;10.216;2024-02-26T14:00:19;8.20;99.90
13572;DHT22;6857;53.484;10.216;2024-02-26T14:02:45;8.30;99.90
13572;DHT22;6857;53.484;10.216;2024-02-26T14:05:11;8.40;99.90
13572;DHT22;6857;53.484;10.216;2024-02-26T14:07:36;8.70;99.90
13572;DHT22;6857;53.484;10.216;2024-02-26T14:10:03;8.90;99.90
13572;DHT22;6857;53.484;10.216;2024-02-26T14:12:28;8.90;99.90
13572;DHT22;6857;53.484;10.216;2024-02-26T14:14:54;9.00;99.90
13572;DHT22;6857;53.484;10.216;2024-02-26T14:17:21;9.00;99.90
13572;DHT22;6857;53.484;10.216;2024-02-26T14:19:47;8.90;99.90
13572;DHT22;6857;53.484;10.216;2024-02-26T14:22:13;8.80;99.90
13572;DHT22;6857;53.484;10.216;2024-02-26T14:24:40;8.80;99.90
13572;DHT22;6857;53.484;10.216;2024-02-26T14:27:08;8.80;99.90
13572;DHT22;6857;53.484;10.216;2024-02-26T14:29:34;8.80;99.90
13572;DHT22;6857;53.484;10.216;2024-02-26T14:32:00;8.80;99.90
13572;DHT22;6857;53.484;10.216;2024-02-26T14:34:27;8.80;99.90
13572;DHT22;6857;53.484;10.216;2024-02-26T14:36:52;8.80;99.90
13572;DHT22;6857;53.484;10.216;2024-02-26T14:39:18;8.80;99.90
13572;DHT22;6857;53.484;10.216;2024-02-26T14:41:44;8.70;99.90
13572;DHT22;6857;53.484;10.216;2024-02-26T14:44:09;8.70;99.90
13572;DHT22;6857;53.484;10.216;2024-02-26T14:46:36;8.60;99.90
13572;DHT22;6857;53.484;10.216;2024-02-26T14:49:02;8.60;99.90
13572;DHT22;6857;53.484;10.216;2024-02-26T14:51:27;8.50;99.90
13572;DHT22;6857;53.484;10.216;2024-02-26T14:53:53;8.40;99.90
13572;DHT22;6857;53.484;10.216;2024-02-26T14:56:19;8.40;99.90
13572;DHT22;6857;53.484;10.216;2024-02-26T14:58:44;8.20;99.90
13572;DHT22;6857;53.484;10.216;2024-02-26T15:01:11;8.10;99.90
13572;DHT22;6857;53.484;10.216;2024-02-26T15:03:37;8.00;99.90
13572;DHT22;6857;53.484;10.216;2024-02-26T15:06:02;8.00;99.90
13572;DHT22;6857;53.484;10.216;2024-02-26T15:08:28;7.90;99.90
13572;DHT22;6857;53.484;10.216;2024-02-26T15:10:54;7.80;99.90
13572;DHT22;6857;53.484;10.216;2024-02-26T15:13:19;7.80;99.90
13572;DHT22;6857;53.484;10.216;2024-02-26T15:15:45;7.80;99.90
13572;DHT22;6857;53.484;10.216;2024-02-26T15:18:11;7.80;99.90
13572;DHT22;6857;53.484;10.216;2024-02-26T15:20:42;7.80;99.90
13572;DHT22;6857;53.484;10.216;2024-02-26T15:23:11;7.70;99.90
13572;DHT22;6857;53.484;10.216;2024-02-26T15:25:37;7.70;99.90
13572;DHT22;6857;53.484;10.216;2024-02-26T15:28:03;7.60;99.90
13572;DHT22;6857;53.484;10.216;2024-02-26T15:30:29;7.60;99.90
13572;DHT22;6857;53.484;10.216;2024-02-26T15:32:55;7.50;99.90
13572;DHT22;6857;53.484;10.216;2024-02-26T15:35:21;7.50;99.90
13572;DHT22;6857;53.484;10.216;2024-02-26T15:37:47;7.40;99.90
13572;DHT22;6857;53.484;10.216;2024-02-26T15:40:12;7.40;99.90
13572;DHT22;6857;53.484;10.216;2024-02-26T15:42:38;7.40;99.90
13572;DHT22;6857;53.484;10.216;2024-02-26T15:45:04;7.40;99.90
13572;DHT22;6857;53.484;10.216;2024-02-26T15:47:30;7.40;99.90
13572;DHT22;6857;53.484;10.216;2024-02-26T15:49:56;7.30;99.90